createdAt,value
2023-04-15T00:00:26.278Z,4.60
2023-04-15T00:05:33.725Z,4.50
2023-04-15T00:10:41.020Z,4.50
2023-04-15T00:15:48.614Z,4.50
2023-04-15T00:20:55.939Z,4.50
2023-04-15T00:26:03.177Z,4.50
2023-04-15T00:31:10.486Z,4.50
2023-04-15T00:36:18.240Z,4.70
2023-04-15T00:41:26.079Z,4.60
2023-04-15T00:46:38.091Z,4.50
2023-04-15T00:51:45.301Z,4.40
2023-04-15T00:56:52.533Z,4.60
2023-04-15T01:02:00.117Z,4.50
2023-04-15T01:07:07.417Z,4.40
2023-04-15T01:12:17.722Z,4.40
2023-04-15T01:17:26.231Z,4.50
2023-04-15T01:22:35.034Z,4.30
2023-04-15T01:27:45.925Z,4.30
2023-04-15T01:32:52.941Z,4.30
2023-04-15T01:38:09.115Z,4.50
2023-04-15T01:43:15.971Z,4.40
2023-04-15T01:48:23.521Z,4.30
2023-04-15T01:53:30.532Z,4.40
2023-04-15T01:58:37.832Z,4.30
2023-04-15T02:03:45.931Z,4.30
2023-04-15T02:08:52.941Z,4.30
2023-04-15T02:14:00.048Z,4.20
2023-04-15T02:19:07.044Z,4.30
2023-04-15T02:24:14.096Z,4.30
2023-04-15T02:29:21.062Z,4.30
2023-04-15T02:34:28.394Z,4.40
2023-04-15T02:39:35.956Z,4.30
2023-04-15T02:44:43.867Z,4.40
2023-04-15T02:49:51.065Z,4.30
2023-04-15T02:54:59.462Z,4.40
2023-04-15T03:00:47.022Z,4.40
2023-04-15T03:05:53.885Z,4.50
2023-04-15T03:11:03.017Z,4.40
2023-04-15T03:16:10.610Z,4.50
2023-04-15T03:21:17.624Z,4.50
2023-04-15T03:26:32.098Z,4.40
2023-04-15T03:31:39.255Z,4.50
2023-04-15T03:36:46.399Z,4.50
2023-04-15T03:41:53.835Z,4.50
2023-04-15T03:47:00.764Z,4.60
2023-04-15T03:52:08.136Z,4.50
2023-04-15T03:57:15.642Z,4.50
2023-04-15T04:02:23.812Z,4.60
2023-04-15T04:07:30.836Z,4.50
2023-04-15T04:12:37.660Z,4.40
2023-04-15T04:17:44.385Z,4.40
2023-04-15T04:22:51.553Z,4.50
2023-04-15T04:27:58.779Z,4.50
2023-04-15T04:33:05.523Z,4.40
2023-04-15T04:38:12.458Z,4.40
2023-04-15T04:43:19.231Z,4.20
2023-04-15T04:48:26.372Z,4.20
2023-04-15T04:53:33.144Z,4.20
2023-04-15T04:58:40.017Z,4.30
2023-04-15T05:03:46.966Z,4.40
2023-04-15T05:08:55.749Z,4.50
2023-04-15T05:14:02.736Z,4.60
2023-04-15T05:19:09.497Z,4.50
2023-04-15T05:24:17.178Z,4.60
2023-04-15T05:29:23.885Z,4.60
2023-04-15T05:34:31.097Z,4.70
2023-04-15T05:39:37.792Z,4.60
2023-04-15T05:44:45.156Z,4.70
2023-04-15T05:49:52.097Z,4.80
2023-04-15T05:54:59.083Z,4.90
2023-04-15T06:00:07.153Z,4.90
2023-04-15T06:05:14.034Z,4.80
2023-04-15T06:10:21.767Z,4.90
2023-04-15T06:15:28.772Z,5.00
2023-04-15T06:20:35.496Z,5.00
2023-04-15T06:25:42.203Z,5.20
2023-04-15T06:30:49.506Z,5.30
2023-04-15T06:35:56.400Z,5.20
2023-04-15T06:41:04.508Z,5.20
2023-04-15T06:46:12.140Z,5.30
2023-04-15T06:51:19.205Z,5.40
2023-04-15T06:56:25.947Z,5.30
2023-04-15T07:01:33.081Z,5.40
2023-04-15T07:06:40.128Z,5.40
2023-04-15T07:11:47.408Z,5.20
2023-04-15T07:16:55.763Z,5.30
2023-04-15T07:22:03.309Z,5.30
2023-04-15T07:27:10.414Z,5.40
2023-04-15T07:32:17.384Z,5.40
2023-04-15T07:37:24.416Z,5.50
2023-04-15T07:42:31.505Z,5.50
2023-04-15T07:47:38.448Z,5.60
2023-04-15T07:52:46.018Z,5.70
2023-04-15T07:57:52.984Z,5.80
2023-04-15T08:03:00.177Z,5.80
2023-04-15T08:08:07.700Z,5.90
2023-04-15T08:13:14.594Z,5.60
2023-04-15T08:18:21.587Z,5.80
2023-04-15T08:23:28.660Z,5.80
2023-04-15T08:28:36.052Z,5.90
2023-04-15T08:33:42.737Z,6.10
2023-04-15T08:38:51.649Z,6.20
2023-04-15T08:44:06.191Z,6.20
2023-04-15T08:49:14.519Z,6.40
2023-04-15T08:54:21.973Z,6.30
2023-04-15T08:59:28.820Z,6.40
2023-04-15T09:04:35.997Z,6.70
2023-04-15T09:09:42.697Z,6.80
2023-04-15T09:14:49.931Z,7.00
2023-04-15T09:20:19.266Z,7.30
2023-04-15T09:25:29.190Z,7.30
2023-04-15T09:30:36.447Z,7.30
2023-04-15T09:35:43.582Z,7.70
2023-04-15T09:40:50.441Z,7.60
2023-04-15T09:45:57.220Z,7.40
2023-04-15T09:51:04.960Z,7.50
2023-04-15T09:56:11.799Z,7.90
2023-04-15T10:01:19.121Z,7.90
2023-04-15T10:06:28.540Z,8.30
2023-04-15T10:11:37.841Z,7.80
2023-04-15T10:16:48.909Z,7.90
2023-04-15T10:21:57.705Z,7.90
2023-04-15T10:27:07.759Z,8.00
2023-04-15T10:32:15.539Z,7.90
2023-04-15T10:37:37.849Z,8.00
2023-04-15T10:42:44.831Z,8.00
2023-04-15T10:47:58.475Z,7.90
2023-04-15T10:53:08.815Z,7.80
2023-04-15T10:58:16.006Z,8.00
2023-04-15T11:03:42.620Z,8.20
2023-04-15T11:09:03.493Z,8.20
2023-04-15T11:14:18.915Z,8.40
2023-04-15T11:19:26.724Z,8.30
2023-04-15T11:24:34.633Z,8.50
2023-04-15T11:29:41.646Z,8.40
2023-04-15T11:34:53.375Z,8.40
2023-04-15T11:40:00.673Z,8.50
2023-04-15T11:45:16.748Z,8.60
2023-04-15T11:50:25.618Z,8.60
2023-04-15T11:55:33.209Z,8.60
2023-04-15T12:00:41.492Z,8.70
2023-04-15T12:06:22.863Z,8.50
2023-04-15T12:11:39.107Z,8.50
2023-04-15T12:16:51.752Z,8.50
2023-04-15T12:22:08.472Z,8.60
2023-04-15T12:27:17.230Z,8.30
2023-04-15T12:32:24.588Z,8.40
2023-04-15T12:37:32.170Z,8.20
2023-04-15T12:42:39.333Z,8.20
2023-04-15T12:47:46.610Z,8.10
2023-04-15T12:52:53.427Z,8.20
2023-04-15T12:58:00.559Z,8.40
2023-04-15T13:03:07.888Z,8.40
2023-04-15T13:08:15.507Z,8.40
2023-04-15T13:13:22.797Z,8.20
2023-04-15T13:18:31.474Z,8.10
2023-04-15T13:23:38.457Z,8.20
2023-04-15T13:28:47.300Z,8.10
2023-04-15T13:33:54.555Z,8.30
2023-04-15T13:39:02.113Z,8.30
2023-04-15T13:44:08.967Z,8.50
2023-04-15T13:49:15.753Z,8.70
2023-04-15T13:54:23.056Z,8.70
2023-04-15T13:59:29.926Z,8.80
2023-04-15T14:04:36.797Z,8.70
2023-04-15T14:09:45.377Z,8.70
2023-04-15T14:14:52.172Z,8.60
2023-04-15T14:19:59.125Z,8.50
2023-04-15T14:25:06.968Z,8.40
2023-04-15T14:30:14.569Z,8.50
2023-04-15T14:35:21.882Z,8.50
2023-04-15T14:40:29.157Z,8.40
2023-04-15T14:45:36.613Z,8.50
2023-04-15T14:50:44.083Z,8.40
2023-04-15T14:55:50.784Z,8.30
2023-04-15T15:00:58.082Z,8.30
2023-04-15T15:06:05.077Z,8.10
2023-04-15T15:11:11.964Z,8.00
2023-04-15T15:16:19.204Z,8.30
2023-04-15T15:21:29.062Z,8.10
2023-04-15T15:26:36.441Z,7.80
2023-04-15T15:31:43.394Z,7.80
2023-04-15T15:36:50.842Z,7.80
2023-04-15T15:41:57.969Z,7.40
2023-04-15T15:47:05.013Z,7.50
2023-04-15T15:52:13.436Z,7.00
2023-04-15T15:57:20.381Z,6.70
2023-04-15T16:02:52.327Z,6.60
2023-04-15T16:07:36.809Z,6.70
2023-04-15T16:12:43.887Z,6.60
2023-04-15T16:17:51.102Z,6.50
2023-04-15T16:23:00.198Z,6.40
2023-04-15T16:28:18.509Z,6.30
2023-04-15T16:33:15.341Z,6.40
2023-04-15T16:38:22.525Z,6.50
2023-04-15T16:43:29.953Z,6.50
2023-04-15T16:48:36.770Z,6.40
2023-04-15T16:53:43.490Z,6.50
2023-04-15T16:58:51.200Z,6.50
2023-04-15T17:03:58.498Z,6.50
2023-04-15T17:09:05.653Z,6.50
2023-04-15T17:14:13.911Z,6.50
2023-04-15T17:19:21.116Z,6.60
2023-04-15T17:24:27.921Z,6.50
2023-04-15T17:29:35.062Z,6.50
2023-04-15T17:34:49.445Z,6.40
2023-04-15T17:39:50.938Z,6.40
2023-04-15T17:44:57.734Z,6.30
2023-04-15T17:50:05.424Z,6.40
2023-04-15T17:55:13.097Z,6.20
2023-04-15T18:00:20.182Z,5.90
2023-04-15T18:05:27.421Z,5.80
2023-04-15T18:10:35.798Z,5.70
2023-04-15T18:15:42.748Z,5.70
2023-04-15T18:20:49.722Z,5.70
2023-04-15T18:25:57.692Z,5.70
2023-04-15T18:31:04.510Z,5.60
2023-04-15T18:36:12.268Z,5.80
2023-04-15T18:41:19.026Z,5.80
2023-04-15T18:46:26.149Z,5.90
2023-04-15T18:51:33.590Z,6.10
2023-04-15T18:56:41.004Z,6.00
2023-04-15T19:01:48.686Z,6.00
2023-04-15T19:06:55.822Z,6.00
2023-04-15T19:12:03.534Z,5.90
2023-04-15T19:17:10.436Z,5.90
2023-04-15T19:22:19.343Z,5.90
2023-04-15T19:27:26.551Z,5.90
2023-04-15T19:32:33.671Z,5.80
2023-04-15T19:37:40.894Z,5.80
2023-04-15T19:42:48.034Z,5.50
2023-04-15T19:47:56.738Z,5.40
2023-04-15T19:53:03.749Z,5.50
2023-04-15T19:58:10.642Z,5.30
2023-04-15T20:03:21.709Z,5.30
2023-04-15T20:08:28.737Z,5.40
2023-04-15T20:13:35.560Z,5.30
2023-04-15T20:18:42.436Z,5.40
2023-04-15T20:23:49.404Z,5.50
2023-04-15T20:28:56.925Z,5.30
2023-04-15T20:34:03.690Z,5.30
2023-04-15T20:39:10.451Z,5.10
2023-04-15T20:44:17.517Z,5.20
2023-04-15T20:49:24.577Z,5.20
2023-04-15T20:54:32.099Z,5.10
2023-04-15T20:59:38.910Z,5.00
2023-04-15T21:04:47.383Z,4.90
2023-04-15T21:09:55.571Z,4.90
2023-04-15T21:15:02.658Z,4.70
2023-04-15T21:20:11.174Z,4.80
2023-04-15T21:25:17.948Z,4.70
2023-04-15T21:30:25.851Z,4.50
2023-04-15T21:35:32.663Z,4.50
2023-04-15T21:40:40.970Z,4.50
2023-04-15T21:46:22.417Z,4.30
2023-04-15T21:51:01.885Z,4.40
2023-04-15T21:56:09.268Z,4.40
2023-04-15T22:01:17.184Z,4.30
2023-04-15T22:06:30.301Z,4.20
2023-04-15T22:11:37.055Z,4.20
2023-04-15T22:16:44.795Z,4.30
2023-04-15T22:21:52.763Z,4.30
2023-04-15T22:26:59.789Z,4.20
2023-04-15T22:32:07.440Z,4.20
2023-04-15T22:37:15.821Z,4.00
2023-04-15T22:42:22.714Z,3.80
2023-04-15T22:47:29.526Z,4.10
2023-04-15T22:52:36.416Z,4.00
2023-04-15T22:57:43.359Z,4.00
2023-04-15T23:02:50.916Z,3.90
2023-04-15T23:07:58.249Z,3.90
2023-04-15T23:13:05.263Z,4.00
2023-04-15T23:18:12.647Z,4.10
2023-04-15T23:23:19.651Z,4.00
2023-04-15T23:28:26.585Z,4.10
2023-04-15T23:33:33.603Z,4.00
2023-04-15T23:38:40.635Z,4.00
2023-04-15T23:43:47.487Z,4.10
2023-04-15T23:48:54.691Z,4.10
2023-04-15T23:54:02.265Z,4.10
2023-04-15T23:59:09.395Z,4.20
